Gustaf Dalen, Sweden

4:00 PM CEST on October 22, 2014 (GMT +0200)
Jogerso | Change Station
CLOSE
Current Station
Personal Weather Station
Location: Oxelosund, SoDERMANLANDS LaN
Elevation: 25 ft
Nearby Weather Stations

Elev 25 ft 58.67 °N, 17.06 °E | Updated 1 second ago

Mostly Cloudy
Mostly Cloudy
41.0 °F
Feels Like 34 °F
N
12.7
Wind Variable Wind from ENE
Gusts 12.7 mph

Today
High -- | Low -- °F
--% Chance of Precip.
Yesterday
High -- | Low -- °F
Precip. -- in
7:42 AM 5:25 PM
Waning Crescent, 2% visible
Pressure 30.04 in
Visibility 6.2 miles
Clouds Few 2600 ft
Mostly Cloudy 3900 ft
Windchill 34 °F
Dew Point 30 °F
Humidity 66%
Rainfall 0.00 in
Snow Depth Not available.
UV 0 out of 12
Pollen Not available.
Air Quality Not available.
Flu Activity Not available.
METAR ESKN 221350Z 08013KT 9999 FEW026 BKN039 05/M00 Q1017

More Conditions Fewer Conditions

Pressure 30.04 in
Visibility 6.2 miles
Clouds Few 2600 ft
Mostly Cloudy 3900 ft
Windchill 34 °F
Dew Point 30 °F
Humidity 66%
Rainfall 0.00 in
Snow Depth Not available.
UV 0 out of 12
Pollen Not available.
Air Quality Not available.
Flu Activity Not available.
METAR ESKN 221350Z 08013KT 9999 FEW026 BKN039 05/M00 Q1017

More Conditions Fewer Conditions

10-Day Weather Forecast

Almanac

Astronomy

Oct. 22, 2014 Rise Set
Actual Time 7:42 AM CEST 5:25 PM CEST
Civil Twilight 7:00 AM CEST 6:07 PM CEST
Nautical Twilight 6:14 AM CEST 6:53 PM CEST
Astronomical Twilight 5:28 AM CEST 7:39 PM CEST
Moon 5:46 AM CEST 4:57 PM CEST
Length of Visible Light 11h 06m
Length of Day
9h 43m
Tomorrow will be 4m 59s shorter.
Waning Crescent, 2% of the Moon is Illuminated
Today
Waning Crescent
Oct 23
New
Oct 30
First Quarter
Nov 6
Full
Nov 14
Last Quarter

Yesterday's Extremes

Country Highs Country Lows

Community

WunderPhotos

Upload Photos

1,763,923 photos uploaded!

Nearby

Snow Depth

Not available.

Earthquake Activity

City Distance Mag. Time & Date
No recent earthquake activity has been reported nearby.
Minimum magnitude displayed is 2.5.

Coastal Water Temperatures

Place Temperature
No Stations Reporting

Nearby Weather Stations